Time;durP1;ratioP1;P1;durP2;ratioP2;P2;SDS_P1;SDS_P2;PMS_P1;PMS_P2;Temp;Humidity;BMP_temperature;BMP_pressure;BME280_temperature;BME280_humidity;BME280_pressure;Samples;Min_cycle;Max_cycle;Signal;HPM_P1;HPM_P2
2022/10/20 00:01:22;;;;;;;71.00;47.40;;;;;;;25.86;38.59;101443.31;4975774;28;20062;-77
2022/10/20 00:03:51;;;;;;;73.25;45.88;;;;;;;25.80;38.48;101442.56;4969350;28;20054;-78
2022/10/20 00:06:22;;;;;;;78.10;48.53;;;;;;;25.73;38.85;101440.97;4973589;28;20554;-79
2022/10/20 00:08:52;;;;;;;71.07;46.50;;;;;;;25.63;38.94;101430.56;4960809;28;20051;-83
2022/10/20 00:11:24;;;;;;;69.85;46.50;;;;;;;25.58;39.10;101427.13;4969197;28;20086;-79
2022/10/20 00:13:57;;;;;;;70.97;45.53;;;;;;;25.52;40.10;101429.03;4969722;28;20106;-80
2022/10/20 00:16:28;;;;;;;81.88;48.13;;;;;;;25.46;39.68;101427.41;4973805;28;20046;-81
2022/10/20 00:18:57;;;;;;;73.03;47.73;;;;;;;25.41;39.39;101424.00;4970349;28;20747;-79
2022/10/20 00:21:28;;;;;;;73.18;46.67;;;;;;;25.34;39.49;101432.97;4973358;28;20047;-80
2022/10/20 00:24:00;;;;;;;77.15;47.40;;;;;;;25.25;39.47;101424.31;4978092;28;20494;-81
2022/10/20 00:26:31;;;;;;;75.95;47.20;;;;;;;25.16;39.82;101427.13;4980975;28;20050;-78
2022/10/20 00:29:01;;;;;;;71.05;45.28;;;;;;;25.09;40.42;101425.50;4971324;28;20052;-79
2022/10/20 00:31:30;;;;;;;75.82;45.10;;;;;;;25.01;40.76;101438.88;4978144;28;20465;-78
2022/10/20 00:33:59;;;;;;;78.63;47.88;;;;;;;24.92;40.53;101444.34;4970366;28;20078;-82
2022/10/20 00:36:28;;;;;;;73.97;48.33;;;;;;;24.82;40.81;101441.00;4970831;28;20042;-84
2022/10/20 00:39:01;;;;;;;75.40;47.50;;;;;;;24.74;41.67;101437.66;4974874;28;20560;-85
2022/10/20 00:41:30;;;;;;;77.55;47.85;;;;;;;24.66;41.52;101432.47;4976581;28;20042;-81
2022/10/20 00:44:01;;;;;;;74.25;47.42;;;;;;;24.57;41.59;101434.44;4976864;28;20133;-84
2022/10/20 00:46:37;;;;;;;76.72;48.90;;;;;;;24.48;42.00;101429.31;4976538;28;20504;-84
2022/10/20 00:49:21;;;;;;;77.55;51.72;;;;;;;24.35;42.00;101428.59;4975899;28;20386;-83
2022/10/20 00:51:51;;;;;;;76.25;47.90;;;;;;;24.28;42.39;101438.44;4969875;28;20413;-85
2022/10/20 00:54:25;;;;;;;73.32;48.92;;;;;;;24.19;42.75;101430.63;4965634;28;20066;-79
2022/10/20 00:56:56;;;;;;;70.72;46.20;;;;;;;24.08;43.19;101428.16;4964606;28;20058;-80
2022/10/20 00:59:29;;;;;;;72.32;46.88;;;;;;;23.98;43.25;101430.09;4964461;28;20058;-82
2022/10/20 01:01:58;;;;;;;73.50;47.63;;;;;;;23.88;43.90;101431.09;4966813;28;20736;-83
2022/10/20 01:04:30;;;;;;;71.15;46.35;;;;;;;23.74;44.77;101425.13;4971034;28;20390;-79
2022/10/20 01:06:59;;;;;;;75.75;47.05;;;;;;;23.59;45.21;101416.53;4970556;28;20062;-78
2022/10/20 01:09:30;;;;;;;69.32;46.10;;;;;;;23.47;45.46;101421.97;4970980;28;20042;-82
2022/10/20 01:12:07;;;;;;;75.15;46.45;;;;;;;23.35;45.81;101424.78;4971980;28;20047;-83
2022/10/20 01:14:44;;;;;;;78.57;47.60;;;;;;;23.24;45.96;101427.53;4972957;28;20047;-83
2022/10/20 01:17:25;;;;;;;70.53;45.60;;;;;;;23.12;46.42;101425.94;4973939;28;20519;-80
2022/10/20 01:20:19;;;;;;;74.55;46.92;;;;;;;23.02;46.62;101429.59;4971156;28;20058;-82
2022/10/20 01:23:31;;;;;;;74.05;46.25;;;;;;;22.90;47.41;101419.09;4977062;28;20061;-83
2022/10/20 01:26:31;;;;;;;72.63;45.80;;;;;;;22.77;47.84;101421.88;4923135;28;20054;-80
2022/10/20 01:29:06;;;;;;;71.60;46.00;;;;;;;22.68;48.09;101431.66;4955549;28;20117;-81
2022/10/20 01:31:45;;;;;;;78.53;47.15;;;;;;;22.54;47.95;101427.41;4960590;28;20134;-82
2022/10/20 01:34:19;;;;;;;74.70;46.10;;;;;;;22.46;48.50;101433.63;4971787;28;20499;-81
2022/10/20 01:36:55;;;;;;;78.22;49.58;;;;;;;22.34;48.41;101434.63;4968994;28;20051;-81
2022/10/20 01:39:29;;;;;;;76.63;47.38;;;;;;;22.24;48.78;101436.44;4980098;28;20053;-82
2022/10/20 01:42:02;;;;;;;75.57;47.30;;;;;;;22.14;48.74;101438.22;4976299;28;20102;-80
2022/10/20 01:44:36;;;;;;;79.60;47.53;;;;;;;22.06;49.15;101433.91;4975659;28;20405;-84
2022/10/20 01:47:06;;;;;;;78.50;49.10;;;;;;;21.96;49.09;101431.31;4977028;28;20074;-81
2022/10/20 01:49:35;;;;;;;87.72;51.20;;;;;;;21.84;49.41;101433.19;4979365;28;20046;-82
2022/10/20 01:52:03;;;;;;;86.90;51.03;;;;;;;21.76;49.68;101433.22;4977294;28;20058;-81
2022/10/20 01:54:32;;;;;;;83.75;52.58;;;;;;;21.72;49.86;101439.41;4970218;28;20475;-77
2022/10/20 01:57:19;;;;;;;81.28;50.40;;;;;;;21.63;50.66;101440.31;4964139;28;20097;-79
2022/10/20 02:00:02;;;;;;;82.22;49.95;;;;;;;21.52;50.92;101443.00;4968408;28;20114;-78
2022/10/20 02:02:35;;;;;;;;;;;;;;;21.42;50.91;101440.44;4973611;28;20073;-78
2022/10/20 02:05:21;;;;;;;90.40;52.75;;;;;;;21.31;51.33;101437.81;4968742;28;20283;-78
2022/10/20 02:07:50;;;;;;;85.28;51.95;;;;;;;21.22;51.45;101437.84;4966411;28;20059;-77
2022/10/20 02:10:23;;;;;;;81.47;50.75;;;;;;;21.12;51.93;101427.34;4965983;28;20051;-78
2022/10/20 02:12:55;;;;;;;93.22;55.20;;;;;;;21.03;52.43;101437.91;4961820;28;20051;-78
2022/10/20 02:15:28;;;;;;;81.65;52.40;;;;;;;20.94;52.59;101453.72;4964085;28;20060;-77
2022/10/20 02:18:00;;;;;;;93.22;55.67;;;;;;;20.82;52.89;101451.09;4963894;28;20073;-76
2022/10/20 02:20:32;;;;;;;89.57;55.05;;;;;;;20.70;53.05;101442.34;4962399;28;20063;-75
2022/10/20 02:23:03;;;;;;;95.20;54.88;;;;;;;20.59;53.69;101449.41;4964044;28;20425;-77
2022/10/20 02:25:34;;;;;;;87.07;56.05;;;;;;;20.49;54.23;101434.44;4969649;28;20110;-78
2022/10/20 02:28:05;;;;;;;86.07;54.50;;;;;;;20.42;54.46;101437.97;4963288;28;20412;-78
2022/10/20 02:30:37;;;;;;;90.07;56.17;;;;;;;20.32;54.99;101437.09;4971152;28;20055;-77
2022/10/20 02:33:07;;;;;;;92.32;56.25;;;;;;;20.22;55.41;101430.06;4967379;28;20074;-78
2022/10/20 02:35:35;;;;;;;92.68;57.17;;;;;;;20.15;55.70;101433.56;4965820;28;20042;-78
2022/10/20 02:38:04;;;;;;;97.18;57.10;;;;;;;20.06;55.70;101434.44;4970661;28;20140;-77
2022/10/20 02:40:33;;;;;;;96.30;59.40;;;;;;;19.97;56.19;101434.44;4966709;28;20445;-77
2022/10/20 02:43:09;;;;;;;96.18;58.83;;;;;;;19.86;56.18;101443.19;4967012;28;20085;-75
2022/10/20 02:45:39;;;;;;;104.30;59.15;;;;;;;19.77;56.49;101448.41;4964956;28;20061;-75
2022/10/20 02:48:08;;;;;;;96.88;58.70;;;;;;;19.68;56.30;101453.59;4960232;28;20489;-75
2022/10/20 02:50:38;;;;;;;98.22;58.78;;;;;;;19.57;56.32;101439.56;4964686;28;20051;-75
2022/10/20 02:53:07;;;;;;;96.60;56.95;;;;;;;19.49;56.70;101452.63;4972852;28;20054;-75
2022/10/20 02:55:36;;;;;;;99.50;60.17;;;;;;;19.40;57.08;101455.22;4962912;28;20047;-78
2022/10/20 02:58:04;;;;;;;102.90;60.88;;;;;;;19.30;57.05;101453.44;4973998;28;20043;-76
2022/10/20 03:00:33;;;;;;;102.72;61.33;;;;;;;19.21;57.34;101452.50;4957811;28;20044;-76
2022/10/20 03:03:03;;;;;;;94.18;51.47;;;;;;;19.11;57.42;101444.63;4966246;28;20062;-78
2022/10/20 03:05:31;;;;;;;104.15;58.08;;;;;;;19.03;57.60;101448.06;4956138;28;20059;-81
2022/10/20 03:08:07;;;;;;;107.38;54.88;;;;;;;18.97;57.75;101442.78;4967679;28;20051;-80
2022/10/20 03:10:36;;;;;;;107.38;63.40;;;;;;;18.88;58.16;101444.47;4973798;28;20129;-80
2022/10/20 03:13:05;;;;;;;94.65;49.50;;;;;;;18.81;58.48;101443.56;4965300;28;20625;-79
2022/10/20 03:15:34;;;;;;;100.65;55.08;;;;;;;18.77;58.48;101441.78;4963543;28;20055;-77
2022/10/20 03:18:04;;;;;;;103.95;58.85;;;;;;;18.70;59.14;101447.81;4968018;28;20772;-77
2022/10/20 03:20:33;;;;;;;96.38;51.47;;;;;;;18.60;58.97;101446.88;4960489;28;20047;-78
2022/10/20 03:23:01;;;;;;;102.57;58.83;;;;;;;18.55;59.87;101449.44;4972653;28;20054;-78
2022/10/20 03:25:32;;;;;;;97.57;57.00;;;;;;;18.51;60.24;101441.53;4969697;28;20504;-79
2022/10/20 03:28:00;;;;;;;91.53;47.83;;;;;;;18.48;60.64;101441.53;4972603;28;20054;-78
2022/10/20 03:30:29;;;;;;;104.85;61.90;;;;;;;18.41;60.30;101437.97;4970471;28;20053;-78
2022/10/20 03:32:58;;;;;;;99.40;55.38;;;;;;;18.36;60.13;101439.69;4966148;28;21308;-80
2022/10/20 03:35:28;;;;;;;83.85;43.55;;;;;;;18.31;61.28;101433.53;4968304;28;20047;-77
2022/10/20 03:37:56;;;;;;;89.25;47.53;;;;;;;18.29;61.58;101441.38;4974460;28;20412;-78
2022/10/20 03:40:25;;;;;;;94.88;50.45;;;;;;;18.26;61.81;101437.88;4973098;28;20043;-79
2022/10/20 03:42:54;;;;;;;92.30;53.38;;;;;;;18.19;62.03;101440.44;4961423;28;20051;-79
2022/10/20 03:45:22;;;;;;;106.05;57.80;;;;;;;18.15;61.96;101443.88;4970493;28;20471;-78
2022/10/20 03:47:51;;;;;;;93.18;46.88;;;;;;;18.10;62.05;101440.34;4962179;28;20419;-79
2022/10/20 03:50:20;;;;;;;94.78;48.78;;;;;;;18.04;62.09;101440.28;4966466;28;20050;-80
2022/10/20 03:52:51;;;;;;;99.57;47.60;;;;;;;17.99;62.29;101436.75;4959461;28;20129;-81
2022/10/20 03:55:20;;;;;;;97.85;48.22;;;;;;;17.92;62.29;101435.78;4959249;28;20050;-80
2022/10/20 03:57:49;;;;;;;101.80;48.17;;;;;;;17.87;63.00;101428.78;4962510;28;20055;-82
2022/10/20 04:00:18;;;;;;;103.55;48.28;;;;;;;17.79;62.99;101429.50;4974173;28;20050;-78
2022/10/20 04:02:48;;;;;;;102.30;53.92;;;;;;;17.73;63.35;101434.69;4956535;28;20062;-80
2022/10/20 04:05:18;;;;;;;103.10;49.70;;;;;;;17.68;63.75;101436.38;4964331;28;20057;-79
2022/10/20 04:07:47;;;;;;;90.60;47.38;;;;;;;17.61;63.69;101444.13;4967658;28;20153;-81
2022/10/20 04:10:18;;;;;;;97.65;48.13;;;;;;;17.55;63.96;101442.34;4971549;28;20053;-82
2022/10/20 04:12:47;;;;;;;93.85;44.58;;;;;;;17.47;63.74;101436.13;4966833;28;20504;-80
2022/10/20 04:15:17;;;;;;;99.18;51.33;;;;;;;17.42;64.74;101449.16;4973550;28;20050;-81
2022/10/20 04:17:45;;;;;;;89.25;46.67;;;;;;;17.33;64.47;101449.03;4969422;28;20043;-80
2022/10/20 04:20:14;;;;;;;102.65;50.53;;;;;;;17.24;64.91;101452.41;4967163;28;20504;-79
2022/10/20 04:22:43;;;;;;;100.13;48.33;;;;;;;17.17;64.77;101453.19;4977956;28;20100;-80
2022/10/20 04:25:12;;;;;;;92.22;44.22;;;;;;;17.09;65.80;101465.31;4970209;28;20047;-78
2022/10/20 04:27:42;;;;;;;94.70;50.85;;;;;;;17.01;66.17;101456.44;4971027;28;20153;-78
2022/10/20 04:30:12;;;;;;;99.68;48.28;;;;;;;17.01;65.55;101462.56;4966653;28;20505;-80
2022/10/20 04:32:40;;;;;;;92.53;45.90;;;;;;;16.93;65.98;101457.22;4981542;28;20050;-79
2022/10/20 04:35:09;;;;;;;100.93;46.00;;;;;;;16.87;67.27;101459.75;4976175;28;20051;-80
2022/10/20 04:37:38;;;;;;;94.13;43.67;;;;;;;16.84;67.20;101459.72;4973528;28;20042;-77
2022/10/20 04:40:08;;;;;;;91.75;44.55;;;;;;;16.81;67.16;101464.88;4965792;28;20061;-78
2022/10/20 04:42:36;;;;;;;92.60;43.88;;;;;;;16.76;67.33;101462.16;4962722;28;20054;-80
2022/10/20 04:45:07;;;;;;;92.55;45.42;;;;;;;16.73;67.25;101474.31;4974496;28;20051;-79
2022/10/20 04:47:36;;;;;;;103.53;48.10;;;;;;;16.60;67.64;101454.06;4970326;28;20730;-78
2022/10/20 04:50:05;;;;;;;100.70;47.67;;;;;;;16.62;68.14;101468.03;4964505;28;20051;-77
2022/10/20 04:52:34;;;;;;;103.82;47.05;;;;;;;16.61;67.91;101468.91;4972578;28;20176;-81
2022/10/20 04:55:02;;;;;;;102.28;46.92;;;;;;;16.55;67.79;101464.44;4966714;28;20058;-79
2022/10/20 04:57:31;;;;;;;101.07;48.55;;;;;;;16.49;68.58;101467.84;4972497;28;20733;-83
2022/10/20 04:59:59;;;;;;;111.25;47.78;;;;;;;16.49;68.88;101467.84;4965211;28;20051;-80
2022/10/20 05:02:31;;;;;;;97.55;46.08;;;;;;;16.47;68.67;101464.31;4978291;28;20038;-78
2022/10/20 05:05:00;;;;;;;105.83;49.33;;;;;;;16.45;68.96;101467.75;4968975;28;20058;-80
2022/10/20 05:07:31;;;;;;;104.85;47.45;;;;;;;16.43;69.24;101469.47;4972777;28;20794;-79
2022/10/20 05:09:59;;;;;;;110.32;50.10;;;;;;;16.42;68.57;101465.94;4966055;28;20059;-80
2022/10/20 05:12:28;;;;;;;95.18;47.50;;;;;;;16.42;69.77;101462.47;4976240;28;20066;-79
2022/10/20 05:14:56;;;;;;;111.95;50.78;;;;;;;16.37;69.69;101462.38;4971876;28;20051;-79
2022/10/20 05:17:25;;;;;;;102.18;48.00;;;;;;;16.30;69.61;101468.38;4965127;28;20344;-78
2022/10/20 05:19:55;;;;;;;102.00;47.50;;;;;;;16.24;69.90;101466.53;4973884;28;20412;-80
2022/10/20 05:22:24;;;;;;;107.38;47.80;;;;;;;16.23;70.12;101474.34;4970013;28;20051;-78
2022/10/20 05:24:52;;;;;;;105.07;47.55;;;;;;;16.24;70.33;101476.09;4966964;28;20055;-78
2022/10/20 05:27:21;;;;;;;101.20;52.17;;;;;;;16.18;69.31;101473.38;4966287;28;20054;-79
2022/10/20 05:29:50;;;;;;;101.80;51.20;;;;;;;16.11;69.35;101470.66;4969517;28;20050;-79
2022/10/20 05:32:18;;;;;;;103.28;50.63;;;;;;;16.10;70.42;101471.53;4964957;28;20074;-78
2022/10/20 05:34:47;;;;;;;101.95;48.67;;;;;;;16.08;70.39;101478.44;4968782;28;20552;-79
2022/10/20 05:37:17;;;;;;;104.13;49.95;;;;;;;16.03;70.15;101472.22;4969755;28;20057;-79
2022/10/20 05:39:46;;;;;;;105.00;46.30;;;;;;;15.97;69.86;101477.34;4961485;28;20063;-78
2022/10/20 05:42:16;;;;;;;104.57;47.10;;;;;;;15.90;70.58;101473.75;4967980;28;20498;-79
2022/10/20 05:44:45;;;;;;;100.38;47.38;;;;;;;15.88;70.59;101482.41;4966351;28;20050;-78
2022/10/20 05:47:13;;;;;;;105.57;50.13;;;;;;;15.86;70.33;101478.88;4960412;28;20059;-79
2022/10/20 05:49:42;;;;;;;104.97;50.13;;;;;;;15.83;71.04;101479.69;4966672;28;20046;-79
2022/10/20 05:52:11;;;;;;;110.38;52.55;;;;;;;15.81;70.86;101477.91;4970779;28;20047;-78
2022/10/20 05:54:41;;;;;;;100.68;48.83;;;;;;;15.76;70.47;101476.91;4972952;28;20499;-77
2022/10/20 05:57:10;;;;;;;117.65;52.20;;;;;;;15.70;70.96;101475.06;4960797;28;20055;-80
2022/10/20 05:59:38;;;;;;;109.88;46.25;;;;;;;15.60;70.63;101474.00;4969586;28;20057;-79
2022/10/20 06:02:07;;;;;;;100.15;44.67;;;;;;;15.49;71.44;101478.13;4977504;28;20054;-79
2022/10/20 06:04:36;;;;;;;97.70;46.20;;;;;;;15.44;71.75;101474.53;4969379;28;20061;-79
2022/10/20 06:07:05;;;;;;;96.43;42.75;;;;;;;15.38;71.86;101474.41;4978924;28;20054;-78
2022/10/20 06:09:34;;;;;;;88.07;40.75;;;;;;;15.30;71.39;101482.03;4966441;28;20051;-79
2022/10/20 06:12:04;;;;;;;97.07;44.28;;;;;;;15.27;71.90;101481.97;4963382;28;20594;-83
2022/10/20 06:14:33;;;;;;;87.38;41.45;;;;;;;15.25;72.94;101484.53;4961956;28;20051;-79
2022/10/20 06:17:01;;;;;;;99.85;45.45;;;;;;;15.24;72.50;101488.00;4964939;28;20054;-77
2022/10/20 06:19:30;;;;;;;100.30;45.03;;;;;;;15.11;71.17;101466.84;4973329;28;20070;-80
2022/10/20 06:21:59;;;;;;;102.00;45.33;;;;;;;15.14;73.00;101478.25;4966992;28;20049;-74
2022/10/20 06:24:27;;;;;;;94.32;41.25;;;;;;;15.09;72.59;101482.44;4970711;28;20221;-74
2022/10/20 06:26:56;;;;;;;91.55;39.92;;;;;;;15.01;72.69;101473.59;4963813;28;20047;-76
2022/10/20 06:29:26;;;;;;;82.75;37.05;;;;;;;14.95;72.83;101476.91;4964606;28;20512;-77
2022/10/20 06:31:56;;;;;;;87.30;39.50;;;;;;;14.91;74.04;101469.88;4970814;28;20042;-77
2022/10/20 06:34:26;;;;;;;82.38;39.30;;;;;;;14.88;73.99;101470.69;4973206;28;20058;-78
2022/10/20 06:36:54;;;;;;;93.13;41.78;;;;;;;14.86;74.50;101467.16;4965657;28;20662;-78
2022/10/20 06:39:24;;;;;;;93.13;40.50;;;;;;;14.85;74.97;101475.81;4967587;28;20047;-78
2022/10/20 06:41:54;;;;;;;95.25;43.55;;;;;;;14.85;75.20;101468.00;4963943;28;20058;-78
2022/10/20 06:44:26;;;;;;;96.90;43.28;;;;;;;14.80;73.65;101467.03;4973812;28;20051;-77
2022/10/20 06:46:54;;;;;;;102.70;42.83;;;;;;;14.72;73.71;101468.56;4962204;28;20397;-77
2022/10/20 06:49:23;;;;;;;95.65;40.38;;;;;;;14.64;74.39;101457.97;4963167;28;20777;-77
2022/10/20 06:51:52;;;;;;;91.95;41.47;;;;;;;14.58;75.20;101468.22;4969637;28;20117;-77
2022/10/20 06:54:20;;;;;;;94.18;41.05;;;;;;;14.51;76.56;101470.63;4960138;28;20051;-76
2022/10/20 06:56:49;;;;;;;97.38;42.45;;;;;;;14.37;77.17;101470.28;4958052;28;20051;-78
2022/10/20 06:59:20;;;;;;;91.35;40.80;;;;;;;14.27;76.95;101469.16;4965585;28;20094;-77
2022/10/20 07:01:51;;;;;;;104.25;46.08;;;;;;;14.21;76.36;101471.59;4975860;28;20042;-77
2022/10/20 07:04:20;;;;;;;95.35;41.67;;;;;;;14.16;75.67;101468.88;4969977;28;20051;-78
2022/10/20 07:06:48;;;;;;;98.63;43.63;;;;;;;14.16;76.23;101468.00;4968859;28;20494;-78
2022/10/20 07:09:19;;;;;;;101.55;44.88;;;;;;;14.12;75.91;101455.75;4969080;28;20172;-77
2022/10/20 07:11:51;;;;;;;95.35;42.72;;;;;;;14.08;76.93;101453.91;4973508;28;20546;-78
2022/10/20 07:14:20;;;;;;;83.13;38.40;;;;;;;14.06;76.91;101450.38;4971660;28;20051;-78
2022/10/20 07:16:51;;;;;;;82.40;38.03;;;;;;;14.07;77.21;101457.34;4962899;28;20046;-77
2022/10/20 07:19:19;;;;;;;99.03;42.72;;;;;;;14.04;76.85;101459.03;4960084;28;20056;-79
2022/10/20 07:21:48;;;;;;;90.07;37.38;;;;;;;14.02;78.20;101460.72;4964423;28;20044;-78
2022/10/20 07:24:16;;;;;;;79.75;36.75;;;;;;;13.99;77.72;101460.59;4973825;28;20055;-78
2022/10/20 07:26:45;;;;;;;102.15;36.97;;;;;;;13.96;77.55;101457.06;4968937;28;20043;-79
2022/10/20 07:29:14;;;;;;;83.22;37.28;;;;;;;13.94;78.68;101459.63;4976458;28;20073;-78
2022/10/20 07:31:45;;;;;;;83.28;37.83;;;;;;;13.92;78.07;101460.41;4967547;28;20047;-79
2022/10/20 07:34:17;;;;;;;82.60;34.28;;;;;;;13.84;77.97;101468.03;4972004;28;20055;-79
2022/10/20 07:36:46;;;;;;;86.32;39.47;;;;;;;13.80;78.78;101463.56;4976265;28;20646;-79
2022/10/20 07:39:14;;;;;;;67.55;31.38;;;;;;;13.77;80.43;101463.50;4964129;28;20055;-78
2022/10/20 07:41:46;;;;;;;70.90;31.80;;;;;;;13.75;81.11;101459.97;4971981;28;20303;-79
2022/10/20 07:44:14;;;;;;;81.22;34.08;;;;;;;13.71;81.53;101455.50;4969982;28;20420;-79
2022/10/20 07:46:43;;;;;;;71.60;35.65;;;;;;;13.66;81.83;101459.72;4966926;28;20043;-77
2022/10/20 07:49:14;;;;;;;76.22;30.38;;;;;;;13.64;82.54;101456.19;4973250;28;20129;-78
2022/10/20 07:51:42;;;;;;;61.25;31.38;;;;;;;13.53;82.41;101443.75;4967900;28;20039;-79
2022/10/20 07:54:11;;;;;;;67.22;29.42;;;;;;;13.58;82.84;101443.88;4970090;28;20057;-79
2022/10/20 07:56:42;;;;;;;72.53;32.70;;;;;;;13.56;82.83;101442.94;4963920;28;20161;-78
2022/10/20 07:59:11;;;;;;;79.03;32.28;;;;;;;13.49;82.83;101434.13;4964047;28;20047;-79
2022/10/20 08:01:40;;;;;;;74.70;34.05;;;;;;;13.45;83.15;101445.25;4962819;28;20963;-78
2022/10/20 08:04:09;;;;;;;76.28;31.90;;;;;;;13.44;83.48;101440.88;4965788;28;20785;-79
2022/10/20 08:06:39;;;;;;;72.13;32.30;;;;;;;13.34;83.21;101433.66;4964498;28;20173;-79
2022/10/20 08:09:08;;;;;;;70.70;33.65;;;;;;;13.40;82.88;101441.66;4969142;28;20418;-78
2022/10/20 08:11:37;;;;;;;73.65;32.85;;;;;;;13.34;81.73;101431.06;4952998;28;20042;-77
2022/10/20 08:14:05;;;;;;;77.50;33.53;;;;;;;13.32;81.44;101435.34;4969818;28;20560;-79
2022/10/20 08:16:34;;;;;;;79.80;34.60;;;;;;;13.21;82.25;101441.06;4969300;28;20054;-78
2022/10/20 08:19:03;;;;;;;69.45;30.67;;;;;;;13.14;83.46;101451.22;4968920;28;20133;-79
2022/10/20 08:21:32;;;;;;;77.82;33.35;;;;;;;13.11;82.91;101449.41;4972538;28;20602;-78
2022/10/20 08:24:02;;;;;;;76.10;34.97;;;;;;;13.04;83.83;101444.88;4967689;28;20055;-78
2022/10/20 08:26:31;;;;;;;77.65;32.80;;;;;;;12.94;84.16;101433.34;4975179;28;20547;-78
2022/10/20 08:29:01;;;;;;;75.20;33.60;;;;;;;12.89;84.29;101439.22;4962197;28;20063;-78
2022/10/20 08:31:30;;;;;;;69.68;33.10;;;;;;;12.87;83.92;101448.66;4973829;28;20167;-80
2022/10/20 08:33:58;;;;;;;65.72;29.25;;;;;;;12.88;84.29;101451.31;4973703;28;20055;-79
2022/10/20 08:36:28;;;;;;;72.95;32.55;;;;;;;12.88;84.28;101456.50;4981787;28;20050;-79
2022/10/20 08:38:56;;;;;;;86.03;34.83;;;;;;;12.87;84.00;101452.13;4968400;28;20046;-80
2022/10/20 08:41:32;;;;;;;70.20;33.00;;;;;;;12.87;84.09;101454.72;4986765;28;20048;-80
2022/10/20 08:44:04;;;;;;;73.65;32.25;;;;;;;12.77;84.15;101438.00;4970824;28;20073;-80
2022/10/20 08:46:35;;;;;;;75.20;32.72;;;;;;;12.86;84.43;101449.50;4983170;28;20050;-78
2022/10/20 08:49:06;;;;;;;74.75;33.90;;;;;;;12.83;83.70;101452.91;4975792;28;20050;-78
2022/10/20 08:51:37;;;;;;;73.45;31.15;;;;;;;12.81;83.93;101443.31;4972302;28;20062;-77
2022/10/20 08:54:12;;;;;;;81.25;34.22;;;;;;;12.78;83.94;101441.47;4977320;28;20051;-78
2022/10/20 08:56:43;;;;;;;79.18;34.25;;;;;;;12.66;82.93;101436.75;4968740;28;20102;-77
2022/10/20 08:59:35;;;;;;;82.90;36.00;;;;;;;12.66;84.05;101447.16;4970876;28;20678;-79
2022/10/20 09:02:08;;;;;;;78.72;34.33;;;;;;;12.65;84.74;101449.72;4967255;28;20128;-78
2022/10/20 09:04:42;;;;;;;87.18;36.53;;;;;;;12.62;84.81;101449.59;4972645;28;20081;-79
2022/10/20 09:07:22;;;;;;;93.05;38.83;;;;;;;12.60;84.51;101453.84;4957808;28;20055;-78
2022/10/20 09:09:51;;;;;;;87.13;41.00;;;;;;;12.60;83.96;101449.56;4977855;28;20652;-78
2022/10/20 09:12:22;;;;;;;95.97;42.78;;;;;;;12.57;84.19;101449.44;4976047;28;20058;-79
2022/10/20 09:14:51;;;;;;;106.28;48.72;;;;;;;12.56;84.48;101447.69;4966740;28;20493;-79
2022/10/20 09:17:20;;;;;;;135.15;55.85;;;;;;;12.54;84.78;101451.97;4967053;28;20058;-78
2022/10/20 09:19:55;;;;;;;127.70;53.67;;;;;;;12.52;84.71;101451.91;4969764;28;20058;-80
2022/10/20 09:22:28;;;;;;;114.20;46.63;;;;;;;12.51;84.52;101444.09;4967080;28;20624;-80
2022/10/20 09:24:59;;;;;;;131.63;53.13;;;;;;;12.46;83.50;101437.84;4967611;28;20402;-81
2022/10/20 09:27:38;;;;;;;113.55;50.05;;;;;;;12.43;83.76;101442.94;4964565;28;20047;-80
2022/10/20 09:30:21;;;;;;;127.47;51.58;;;;;;;12.36;83.74;101434.06;4974288;28;20051;-80
2022/10/20 09:32:53;;;;;;;121.60;50.88;;;;;;;12.33;83.54;101434.84;4966232;28;20050;-77
2022/10/20 09:35:26;;;;;;;118.78;51.25;;;;;;;12.29;82.34;101432.09;4971278;28;20055;-79
2022/10/20 09:37:59;;;;;;;138.10;56.15;;;;;;;12.25;83.39;101431.09;4969035;28;20054;-80
2022/10/20 09:40:29;;;;;;;127.10;54.08;;;;;;;12.23;83.71;101430.19;4945945;28;20113;-80
2022/10/20 09:43:02;;;;;;;134.18;56.80;;;;;;;12.23;84.47;101430.19;4975643;28;20061;-80
2022/10/20 09:45:33;;;;;;;140.93;57.10;;;;;;;12.22;84.98;101436.19;4981263;28;20046;-81
2022/10/20 09:48:08;;;;;;;115.82;51.20;;;;;;;12.21;83.58;101439.66;4974495;28;20057;-79
2022/10/20 09:50:39;;;;;;;122.18;53.85;;;;;;;12.18;83.75;101442.09;4977450;28;20601;-80
2022/10/20 09:53:19;;;;;;;133.63;54.95;;;;;;;12.15;83.79;101442.88;4968448;28;20065;-80
2022/10/20 09:55:49;;;;;;;141.68;57.88;;;;;;;12.12;84.15;101447.13;4972004;28;20586;-80
2022/10/20 09:58:25;;;;;;;133.23;55.88;;;;;;;12.09;83.79;101459.97;4966548;28;20138;-80
2022/10/20 10:01:00;;;;;;;133.32;55.20;;;;;;;12.04;84.01;101458.91;4968888;28;20567;-80
2022/10/20 10:03:29;;;;;;;140.70;53.30;;;;;;;12.00;84.29;101449.25;4974464;28;20054;-79
2022/10/20 10:05:59;;;;;;;124.47;55.90;;;;;;;11.90;84.30;101442.88;4971601;28;20794;-78
2022/10/20 10:08:30;;;;;;;125.68;54.67;;;;;;;11.75;86.03;101435.44;4969496;28;20042;-78
2022/10/20 10:11:05;;;;;;;128.45;53.47;;;;;;;11.68;86.43;101430.81;4971841;28;20069;-77
2022/10/20 10:13:42;;;;;;;118.45;50.90;;;;;;;11.63;86.42;101442.75;4968216;28;20043;-77
2022/10/20 10:16:14;;;;;;;123.05;51.58;;;;;;;11.61;86.61;101445.28;4969417;28;20133;-78
2022/10/20 10:18:45;;;;;;;129.13;58.50;;;;;;;11.62;86.04;101438.41;4965477;28;21108;-78
2022/10/20 10:21:16;;;;;;;126.40;57.33;;;;;;;11.63;85.36;101432.38;4971487;28;20301;-80
2022/10/20 10:23:55;;;;;;;119.60;54.33;;;;;;;11.64;85.66;101439.34;4973892;28;20673;-80
2022/10/20 10:26:46;;;;;;;129.38;52.40;;;;;;;11.63;84.97;101428.06;4967752;28;20667;-78
2022/10/20 10:29:26;;;;;;;144.40;53.47;;;;;;;11.60;84.45;101427.09;4966215;28;20645;-78
2022/10/20 10:32:00;;;;;;;138.23;55.72;;;;;;;11.60;84.35;101427.09;4974259;28;20063;-78
2022/10/20 10:34:43;;;;;;;127.15;54.55;;;;;;;11.49;85.67;101419.78;4974052;28;20050;-77
2022/10/20 10:37:14;;;;;;;148.65;57.83;;;;;;;11.37;87.06;101413.31;4977437;28;20066;-77
2022/10/20 10:39:44;;;;;;;128.45;55.20;;;;;;;11.31;87.25;101409.66;4976104;28;20057;-79
2022/10/20 10:42:38;;;;;;;133.23;57.20;;;;;;;11.33;86.42;101412.28;4972127;28;20059;-79
2022/10/20 10:45:18;;;;;;;122.82;51.92;;;;;;;11.33;85.93;101412.28;4980927;28;20046;-79
2022/10/20 10:48:14;;;;;;;128.20;51.75;;;;;;;11.33;85.77;101415.75;4981225;28;20143;-79
2022/10/20 10:50:50;;;;;;;125.07;53.33;;;;;;;11.32;85.21;101418.31;4971700;28;20068;-79
2022/10/20 10:53:33;;;;;;;141.23;57.00;;;;;;;11.33;85.48;101433.91;4969611;28;20063;-81
2022/10/20 10:56:11;;;;;;;120.93;49.92;;;;;;;11.33;86.02;101438.19;4972500;28;20098;-81
2022/10/20 10:58:57;;;;;;;129.70;51.22;;;;;;;11.32;85.67;101429.56;4976735;28;20050;-80
2022/10/20 11:01:50;;;;;;;128.30;53.15;;;;;;;11.33;85.68;101438.19;4974700;28;20118;-79
2022/10/20 11:04:40;;;;;;;126.32;49.22;;;;;;;11.30;84.96;101435.50;4975999;28;20050;-81
2022/10/20 11:07:17;;;;;;;117.80;52.55;;;;;;;11.26;85.90;101423.25;4972270;28;20072;-77
2022/10/20 11:09:59;;;;;;;124.43;49.45;;;;;;;11.22;86.79;101413.59;4969018;28;20058;-77
2022/10/20 11:12:54;;;;;;;129.20;52.33;;;;;;;11.15;86.54;101406.44;4976511;28;20053;-78
2022/10/20 11:15:38;;;;;;;130.63;51.78;;;;;;;11.13;86.47;101408.06;4971954;28;20065;-79
2022/10/20 11:18:18;;;;;;;122.25;50.40;;;;;;;11.12;85.42;101417.56;4966906;28;20063;-79
2022/10/20 11:20:55;;;;;;;109.03;48.67;;;;;;;11.11;85.00;101416.69;4966409;28;20062;-80
2022/10/20 11:23:48;;;;;;;124.63;51.75;;;;;;;11.08;85.44;101424.31;4973994;28;20062;-79
2022/10/20 11:26:23;;;;;;;119.57;50.70;;;;;;;11.08;85.82;101437.25;4979133;28;20076;-80
2022/10/20 11:28:54;;;;;;;119.18;50.50;;;;;;;11.00;85.00;101428.34;4973017;28;20942;-79